createdAt,value
2022-11-12T05:15:58.424Z,4.72
2022-11-12T05:18:43.950Z,5.53
2022-11-12T05:21:48.598Z,5.20
2022-11-12T05:24:42.412Z,4.45
2022-11-12T05:27:28.010Z,5.20
2022-11-12T05:30:13.871Z,5.13
2022-11-12T05:32:58.900Z,4.70
2022-11-12T05:35:43.935Z,4.72
2022-11-12T05:38:29.277Z,4.45
2022-11-12T05:41:19.807Z,5.50
2022-11-12T05:44:05.765Z,3.92
2022-11-12T05:46:50.971Z,4.70
2022-11-12T05:49:36.214Z,4.53
2022-11-12T05:52:21.684Z,4.43
2022-11-12T05:55:12.287Z,4.60
2022-11-12T05:57:57.461Z,5.05
2022-11-12T06:00:42.778Z,5.22
2022-11-12T06:03:28.266Z,5.13
2022-11-12T06:06:13.321Z,5.75
2022-11-12T06:08:58.516Z,4.93
2022-11-12T06:11:43.492Z,5.53
2022-11-12T06:14:28.588Z,5.72
2022-11-12T06:17:13.578Z,5.22
2022-11-12T06:20:02.687Z,4.78
2022-11-12T06:22:48.324Z,4.85
2022-11-12T06:25:34.102Z,5.03
2022-11-12T06:28:19.343Z,5.07
2022-11-12T06:31:05.091Z,5.30
2022-11-12T06:33:50.807Z,5.18
2022-11-12T06:36:36.263Z,4.57
2022-11-12T06:39:21.421Z,5.05
2022-11-12T06:42:06.856Z,4.88
2022-11-12T06:44:52.046Z,5.72
2022-11-12T06:47:37.555Z,4.63
2022-11-12T06:50:22.773Z,5.55
2022-11-12T06:53:07.747Z,5.32
2022-11-12T06:55:53.205Z,5.50
2022-11-12T06:59:04.465Z,5.18
2022-11-12T07:01:53.889Z,6.00
2022-11-12T07:04:39.422Z,5.00
2022-11-12T07:07:25.402Z,6.22
2022-11-12T07:10:15.467Z,5.30
2022-11-12T07:13:00.823Z,5.72
2022-11-12T07:15:46.096Z,5.55
2022-11-12T07:18:32.069Z,6.35
2022-11-12T07:21:19.865Z,6.20
2022-11-12T07:24:05.408Z,6.55
2022-11-12T07:26:50.519Z,6.68
2022-11-12T07:29:47.516Z,7.13
2022-11-12T07:32:36.277Z,6.60
2022-11-12T07:35:25.348Z,6.25
2022-11-12T07:38:10.669Z,7.13
2022-11-12T07:41:07.465Z,6.20
2022-11-12T07:43:53.940Z,7.05
2022-11-12T07:46:40.075Z,7.18
2022-11-12T07:49:27.502Z,6.68
2022-11-12T07:52:12.641Z,6.22
2022-11-12T07:54:57.765Z,5.15
2022-11-12T07:57:43.007Z,5.82
2022-11-12T08:00:30.901Z,5.47
2022-11-12T08:03:45.730Z,6.00
2022-11-12T08:06:31.550Z,5.90
2022-11-12T08:09:16.796Z,6.15
2022-11-12T08:12:09.594Z,5.03
2022-11-12T08:14:54.945Z,5.72
2022-11-12T08:17:40.225Z,5.55
2022-11-12T08:20:27.691Z,6.43
2022-11-12T08:23:12.501Z,7.47
2022-11-12T08:26:05.174Z,6.63
2022-11-12T08:28:52.583Z,7.10
2022-11-12T08:31:40.082Z,6.80
2022-11-12T08:34:25.697Z,6.68
2022-11-12T08:37:10.790Z,6.63
2022-11-12T08:39:56.025Z,7.03
2022-11-12T08:42:41.283Z,6.43
2022-11-12T08:45:27.719Z,6.40
2022-11-12T08:48:14.892Z,6.07
2022-11-12T08:51:06.672Z,6.55
2022-11-12T08:53:51.948Z,7.15
2022-11-12T08:56:38.468Z,5.68
2022-11-12T08:59:23.752Z,7.20
2022-11-12T09:02:13.873Z,6.70
2022-11-12T09:04:58.903Z,6.82
2022-11-12T09:07:49.785Z,6.25
2022-11-12T09:10:37.150Z,7.78
2022-11-12T09:13:22.465Z,6.75
2022-11-12T09:16:09.521Z,6.20
2022-11-12T09:18:55.147Z,7.10
2022-11-12T09:21:40.408Z,5.70
2022-11-12T09:24:25.468Z,6.38
2022-11-12T09:27:10.655Z,5.65
2022-11-12T09:29:55.912Z,6.28
2022-11-12T09:32:41.434Z,5.93
2022-11-12T09:35:30.170Z,5.47
2022-11-12T09:38:15.745Z,6.35
2022-11-12T09:41:22.387Z,6.72
2022-11-12T09:44:14.385Z,6.65
2022-11-12T09:47:04.801Z,6.90
2022-11-12T09:49:59.861Z,16.02
2022-11-12T09:52:47.594Z,10.55
2022-11-12T09:55:42.757Z,8.98
2022-11-12T09:58:28.486Z,8.18
2022-11-12T10:01:55.843Z,8.48
2022-11-12T10:05:15.161Z,8.30
2022-11-12T10:08:26.671Z,7.55
2022-11-12T10:11:27.258Z,8.65
2022-11-12T10:14:27.859Z,8.00
2022-11-12T10:17:37.150Z,7.97
2022-11-12T10:20:42.053Z,7.93
2022-11-12T10:23:41.833Z,8.30
2022-11-12T10:26:28.548Z,8.27
2022-11-12T10:29:57.544Z,8.73
2022-11-12T10:32:45.808Z,8.25
2022-11-12T10:35:31.061Z,10.38
2022-11-12T10:38:22.940Z,10.25
2022-11-12T10:41:30.809Z,9.80
2022-11-12T10:44:26.171Z,10.98
2022-11-12T10:47:32.323Z,10.60
2022-11-12T10:50:31.746Z,9.63
2022-11-12T10:53:31.637Z,8.18
2022-11-12T10:56:31.777Z,8.25
2022-11-12T10:59:20.955Z,8.13
2022-11-12T11:02:19.013Z,7.72
2022-11-12T11:05:31.090Z,8.02
2022-11-12T11:08:36.298Z,8.30
2022-11-12T11:11:27.641Z,8.55
2022-11-12T11:14:29.735Z,9.10
2022-11-12T11:17:18.929Z,7.53
2022-11-12T11:20:19.560Z,8.23
2022-11-12T11:23:20.303Z,8.02
2022-11-12T11:26:46.423Z,8.27
2022-11-12T11:29:56.659Z,8.13
2022-11-12T11:32:55.351Z,8.40
2022-11-12T11:35:47.552Z,9.80
2022-11-12T11:38:39.096Z,8.13
2022-11-12T11:41:33.133Z,8.70
2022-11-12T11:44:51.651Z,8.55
2022-11-12T11:48:02.277Z,8.40
2022-11-12T11:50:59.865Z,8.05
2022-11-12T11:54:03.959Z,8.90
2022-11-12T11:56:51.858Z,9.32
2022-11-12T12:00:07.086Z,9.40
2022-11-12T12:03:17.522Z,9.07
2022-11-12T12:06:46.675Z,9.30
2022-11-12T12:09:40.083Z,9.50
2022-11-12T12:12:43.546Z,10.75
2022-11-12T12:16:10.869Z,22.42
2022-11-12T12:19:13.658Z,16.42
2022-11-12T12:22:07.772Z,10.73
2022-11-12T12:24:59.057Z,9.85
2022-11-12T12:27:53.848Z,9.68
2022-11-12T12:30:44.814Z,10.05
2022-11-12T12:33:37.590Z,10.73
2022-11-12T12:36:38.158Z,9.30
2022-11-12T12:39:35.925Z,9.75
2022-11-12T12:42:38.201Z,10.02
2022-11-12T12:45:52.964Z,9.55
2022-11-12T12:48:42.261Z,10.63
2022-11-12T12:51:33.545Z,9.68
2022-11-12T12:54:36.989Z,9.77
2022-11-12T12:57:39.678Z,9.02
2022-11-12T13:00:40.979Z,9.90
2022-11-12T13:03:42.636Z,9.75
2022-11-12T13:06:30.034Z,9.20
2022-11-12T13:09:14.867Z,9.65
2022-11-12T13:12:06.070Z,9.38
2022-11-12T13:15:07.205Z,8.80
2022-11-12T13:17:52.847Z,8.93
2022-11-12T13:20:40.352Z,9.57
2022-11-12T13:24:04.079Z,8.77
2022-11-12T13:26:52.421Z,9.73
2022-11-12T13:29:37.581Z,8.45
2022-11-12T13:32:53.738Z,8.80
2022-11-12T13:35:39.804Z,9.77
2022-11-12T13:38:26.213Z,9.18
2022-11-12T13:41:18.086Z,8.35
2022-11-12T13:44:12.347Z,8.35
2022-11-12T13:46:57.503Z,9.00
2022-11-12T13:49:45.832Z,8.73
2022-11-12T13:52:31.719Z,8.82
2022-11-12T13:55:22.867Z,8.23
2022-11-12T13:58:20.584Z,9.65
2022-11-12T14:01:07.969Z,8.30
2022-11-12T14:03:53.360Z,8.35
2022-11-12T14:06:42.575Z,9.10
2022-11-12T14:09:46.037Z,8.88
2022-11-12T14:12:34.419Z,9.32
2022-11-12T14:15:51.717Z,9.40
2022-11-12T14:18:45.101Z,10.23
2022-11-12T14:21:30.103Z,8.25
2022-11-12T14:24:15.288Z,9.27
2022-11-12T14:27:00.652Z,8.93
2022-11-12T14:29:46.231Z,10.82
2022-11-12T14:32:38.838Z,9.80
2022-11-12T14:35:31.168Z,9.52
2022-11-12T14:38:28.233Z,9.75
2022-11-12T14:41:24.045Z,8.25
2022-11-12T14:44:24.627Z,8.75
2022-11-12T14:47:10.098Z,9.57
2022-11-12T14:49:55.818Z,8.60
2022-11-12T14:52:44.211Z,9.30
2022-11-12T14:55:37.140Z,9.45
2022-11-12T14:58:25.203Z,9.85
2022-11-12T15:04:38.518Z,9.88
2022-11-12T15:07:35.464Z,10.30
2022-11-12T15:10:34.633Z,10.68
2022-11-12T15:13:24.265Z,10.45
2022-11-12T15:16:11.854Z,9.50
2022-11-12T15:19:06.693Z,11.10
2022-11-12T15:22:01.230Z,11.85
2022-11-12T15:24:49.549Z,11.57
2022-11-12T15:27:39.580Z,10.57
2022-11-12T15:30:26.331Z,11.57
2022-11-12T15:33:11.514Z,9.30
2022-11-12T15:35:59.903Z,10.57
2022-11-12T15:38:51.258Z,11.02
2022-11-12T15:41:36.479Z,11.20
2022-11-12T15:44:21.610Z,12.05
2022-11-12T15:47:13.357Z,11.48
2022-11-12T15:49:59.121Z,13.07
2022-11-12T15:52:44.573Z,11.65
2022-11-12T15:55:29.683Z,12.05
2022-11-12T15:58:30.527Z,12.65
2022-11-12T16:01:16.021Z,13.25
2022-11-12T16:04:01.447Z,13.75
2022-11-12T16:06:46.666Z,14.70
2022-11-12T16:09:31.761Z,13.23
2022-11-12T16:12:16.978Z,12.43
2022-11-12T16:15:02.311Z,13.38
2022-11-12T16:17:48.177Z,12.98
2022-11-12T16:20:35.138Z,12.25
2022-11-12T16:23:20.399Z,12.13
2022-11-12T16:26:08.616Z,14.48
2022-11-12T16:28:53.659Z,13.30
2022-11-12T16:31:41.520Z,13.57
2022-11-12T16:34:26.560Z,11.32
2022-11-12T16:37:13.013Z,11.50
2022-11-12T16:40:12.498Z,11.77
2022-11-12T16:42:59.765Z,11.23
2022-11-12T16:45:47.934Z,11.57
2022-11-12T16:48:43.847Z,10.48
2022-11-12T16:51:31.902Z,11.73
2022-11-12T16:54:16.997Z,11.77
2022-11-12T16:57:01.873Z,10.20
2022-11-12T16:59:46.978Z,10.23
2022-11-12T17:02:32.132Z,9.32
2022-11-12T17:05:20.575Z,9.63
2022-11-12T17:08:06.032Z,9.88
2022-11-12T17:10:51.174Z,10.00
2022-11-12T17:13:38.578Z,9.27
2022-11-12T17:16:24.034Z,9.82
2022-11-12T17:19:10.424Z,8.65
2022-11-12T17:21:55.554Z,8.55
2022-11-12T17:24:41.006Z,8.57
2022-11-12T17:27:26.356Z,8.68
2022-11-12T17:30:12.016Z,8.07
2022-11-12T17:32:59.378Z,7.65
2022-11-12T17:35:44.598Z,7.93
2022-11-12T17:38:30.594Z,9.18
2022-11-12T17:41:16.117Z,7.75
2022-11-12T17:44:02.412Z,7.97
2022-11-12T17:46:48.397Z,7.63
2022-11-12T17:49:33.449Z,7.03
2022-11-12T17:52:18.621Z,8.95
2022-11-12T17:55:04.218Z,9.98
2022-11-12T17:57:49.561Z,8.32
2022-11-12T18:00:39.086Z,6.57
2022-11-12T18:03:24.476Z,7.82
2022-11-12T18:06:14.674Z,8.90
2022-11-12T18:09:02.268Z,7.50
2022-11-12T18:11:58.866Z,8.35
2022-11-12T18:14:43.984Z,7.30
2022-11-12T18:17:28.836Z,9.93
2022-11-12T18:20:13.878Z,9.32
2022-11-12T18:22:58.984Z,10.02
2022-11-12T18:25:46.808Z,9.27
2022-11-12T18:28:32.756Z,8.82
2022-11-12T18:31:18.234Z,9.00
2022-11-12T18:34:03.648Z,10.05
2022-11-12T18:36:48.539Z,7.63
2022-11-12T18:39:33.852Z,6.70
2022-11-12T18:42:19.959Z,6.43
2022-11-12T18:45:05.260Z,5.95
2022-11-12T18:47:51.164Z,6.53
2022-11-12T18:50:35.998Z,6.45
2022-11-12T18:53:21.016Z,7.43
2022-11-12T18:56:12.281Z,10.60
2022-11-12T18:58:57.226Z,7.97
2022-11-12T19:01:42.195Z,8.82
2022-11-12T19:04:27.081Z,10.90
2022-11-12T19:07:12.323Z,9.82
2022-11-12T19:09:57.664Z,9.38
2022-11-12T19:12:42.785Z,7.95
2022-11-12T19:15:27.753Z,10.63
2022-11-12T19:18:14.004Z,9.10
2022-11-12T19:21:05.352Z,8.13
2022-11-12T19:23:54.618Z,9.05
2022-11-12T19:26:40.212Z,7.65
2022-11-12T19:29:25.276Z,6.78
2022-11-12T19:32:10.467Z,7.80
2022-11-12T19:34:55.717Z,7.43
2022-11-12T19:37:41.358Z,7.43
2022-11-12T19:40:26.400Z,7.57
2022-11-12T19:43:11.508Z,7.40
2022-11-12T19:45:56.737Z,7.63
2022-11-12T19:48:42.573Z,7.68
2022-11-12T19:51:34.754Z,7.45
2022-11-12T19:54:20.259Z,7.90
2022-11-12T19:57:05.813Z,7.35
2022-11-12T19:59:50.855Z,7.90
2022-11-12T20:02:36.257Z,7.70
2022-11-12T20:05:21.557Z,7.25
2022-11-12T20:08:09.707Z,7.28
2022-11-12T20:10:55.451Z,7.20
2022-11-12T20:13:40.426Z,7.13
2022-11-12T20:16:26.027Z,9.00
2022-11-12T20:19:11.261Z,7.30
2022-11-12T20:21:56.431Z,6.75
2022-11-12T20:24:41.782Z,6.53
2022-11-12T20:27:26.759Z,5.35
2022-11-12T20:30:12.594Z,6.32
2022-11-12T20:32:57.701Z,5.85
2022-11-12T20:35:42.579Z,6.05
2022-11-12T20:38:28.167Z,6.30
2022-11-12T20:41:16.157Z,6.05
2022-11-12T20:44:02.537Z,6.82
2022-11-12T20:46:47.736Z,5.75
2022-11-12T20:49:32.811Z,5.40
2022-11-12T20:52:18.556Z,6.18
2022-11-12T20:55:03.841Z,4.97
2022-11-12T20:57:49.177Z,6.35
2022-11-12T21:00:34.104Z,5.82
2022-11-12T21:03:19.201Z,6.32
2022-11-12T21:06:06.548Z,5.85
2022-11-12T21:08:52.121Z,6.47
2022-11-12T21:11:36.994Z,5.78
2022-11-12T21:14:21.902Z,6.07
2022-11-12T21:17:07.135Z,5.20
2022-11-12T21:19:53.362Z,5.97
2022-11-12T21:22:38.239Z,5.55
2022-11-12T21:25:23.699Z,5.47
2022-11-12T21:28:08.557Z,5.60
2022-11-12T21:30:53.520Z,5.47
2022-11-12T21:33:38.704Z,5.03
2022-11-12T21:36:26.115Z,6.32
2022-11-12T21:39:11.980Z,5.78
2022-11-12T21:41:57.048Z,5.03
2022-11-12T21:44:42.167Z,6.22
2022-11-12T21:47:27.291Z,5.75
2022-11-12T21:50:12.374Z,5.68
2022-11-12T21:52:57.663Z,6.50
2022-11-12T21:55:42.947Z,5.03
2022-11-12T21:58:29.585Z,5.35
2022-11-12T22:01:21.117Z,5.30
2022-11-12T22:04:07.850Z,5.20
2022-11-12T22:06:53.108Z,5.38
2022-11-12T22:09:38.043Z,5.05
2022-11-12T22:12:22.949Z,5.68
2022-11-12T22:15:08.277Z,5.38
2022-11-12T22:17:53.228Z,5.03
2022-11-12T22:20:38.238Z,4.50
2022-11-12T22:23:23.229Z,5.00
2022-11-12T22:26:11.659Z,6.03
2022-11-12T22:28:58.636Z,5.60
2022-11-12T22:31:43.467Z,5.40
2022-11-12T22:34:28.337Z,4.68
2022-11-12T22:37:13.207Z,5.78
2022-11-12T22:39:58.159Z,5.38
2022-11-12T22:42:43.098Z,5.13
2022-11-12T22:45:28.155Z,5.18
2022-11-12T22:48:13.059Z,5.65
2022-11-12T22:51:00.027Z,5.18
2022-11-12T22:53:45.248Z,4.80
2022-11-12T22:56:33.239Z,4.90
2022-11-12T22:59:18.065Z,4.65
